sensor_id;sensor_type;location;lat;lon;timestamp;temperature;humidity
25963;DHT22;13760;52.588;13.406;2024-02-21T00:01:34;7.80;99.90
25963;DHT22;13760;52.588;13.406;2024-02-21T00:04:00;7.80;99.90
25963;DHT22;13760;52.588;13.406;2024-02-21T00:06:25;7.80;99.90
25963;DHT22;13760;52.588;13.406;2024-02-21T00:08:51;7.80;99.90
25963;DHT22;13760;52.588;13.406;2024-02-21T00:11:17;7.80;99.90
25963;DHT22;13760;52.588;13.406;2024-02-21T00:13:42;7.80;99.90
25963;DHT22;13760;52.588;13.406;2024-02-21T00:16:08;7.80;99.90
25963;DHT22;13760;52.588;13.406;2024-02-21T00:18:33;7.80;99.90
25963;DHT22;13760;52.588;13.406;2024-02-21T00:20:59;7.80;99.90
25963;DHT22;13760;52.588;13.406;2024-02-21T00:23:27;7.80;99.90
25963;DHT22;13760;52.588;13.406;2024-02-21T00:25:52;7.80;99.90
25963;DHT22;13760;52.588;13.406;2024-02-21T00:28:18;7.80;99.90
25963;DHT22;13760;52.588;13.406;2024-02-21T00:30:43;7.80;99.90
25963;DHT22;13760;52.588;13.406;2024-02-21T00:33:09;7.80;99.90
25963;DHT22;13760;52.588;13.406;2024-02-21T00:35:35;7.80;99.90
25963;DHT22;13760;52.588;13.406;2024-02-21T00:38:00;7.80;99.90
25963;DHT22;13760;52.588;13.406;2024-02-21T00:40:26;7.80;99.90
25963;DHT22;13760;52.588;13.406;2024-02-21T00:42:52;7.80;99.90
25963;DHT22;13760;52.588;13.406;2024-02-21T00:45:17;7.80;99.90
25963;DHT22;13760;52.588;13.406;2024-02-21T00:47:43;7.80;99.90
25963;DHT22;13760;52.588;13.406;2024-02-21T00:50:08;7.80;99.90
25963;DHT22;13760;52.588;13.406;2024-02-21T00:52:34;7.80;99.90
25963;DHT22;13760;52.588;13.406;2024-02-21T00:55:00;7.80;99.90
25963;DHT22;13760;52.588;13.406;2024-02-21T00:57:26;7.80;99.90
25963;DHT22;13760;52.588;13.406;2024-02-21T00:59:51;7.80;99.90
25963;DHT22;13760;52.588;13.406;2024-02-21T01:02:17;7.80;99.90
25963;DHT22;13760;52.588;13.406;2024-02-21T01:04:43;7.80;99.90
25963;DHT22;13760;52.588;13.406;2024-02-21T01:07:08;7.80;99.90
25963;DHT22;13760;52.588;13.406;2024-02-21T01:09:34;7.80;99.90
25963;DHT22;13760;52.588;13.406;2024-02-21T01:11:59;7.80;99.90
25963;DHT22;13760;52.588;13.406;2024-02-21T01:14:25;7.70;99.90
25963;DHT22;13760;52.588;13.406;2024-02-21T01:16:50;7.80;99.90
25963;DHT22;13760;52.588;13.406;2024-02-21T01:19:16;7.80;99.90
25963;DHT22;13760;52.588;13.406;2024-02-21T01:21:41;7.70;99.90
25963;DHT22;13760;52.588;13.406;2024-02-21T01:24:07;7.80;99.90
25963;DHT22;13760;52.588;13.406;2024-02-21T01:26:32;7.80;99.90
25963;DHT22;13760;52.588;13.406;2024-02-21T01:28:58;7.80;99.90
25963;DHT22;13760;52.588;13.406;2024-02-21T01:31:23;7.80;99.90
25963;DHT22;13760;52.588;13.406;2024-02-21T01:33:49;7.80;99.90
25963;DHT22;13760;52.588;13.406;2024-02-21T01:36:14;7.80;99.90
25963;DHT22;13760;52.588;13.406;2024-02-21T01:38:40;7.80;99.90
25963;DHT22;13760;52.588;13.406;2024-02-21T01:41:06;7.80;99.90
25963;DHT22;13760;52.588;13.406;2024-02-21T01:43:31;7.80;99.90
25963;DHT22;13760;52.588;13.406;2024-02-21T01:45:57;7.80;99.90
25963;DHT22;13760;52.588;13.406;2024-02-21T01:48:23;7.80;99.90
25963;DHT22;13760;52.588;13.406;2024-02-21T01:50:54;7.80;99.90
25963;DHT22;13760;52.588;13.406;2024-02-21T01:53:22;7.80;99.90
25963;DHT22;13760;52.588;13.406;2024-02-21T01:55:48;7.80;99.90
25963;DHT22;13760;52.588;13.406;2024-02-21T01:58:15;7.80;99.90
25963;DHT22;13760;52.588;13.406;2024-02-21T02:00:43;7.80;99.90
25963;DHT22;13760;52.588;13.406;2024-02-21T02:03:12;7.80;99.90
25963;DHT22;13760;52.588;13.406;2024-02-21T02:05:44;7.90;99.90
25963;DHT22;13760;52.588;13.406;2024-02-21T02:08:10;7.90;99.90
25963;DHT22;13760;52.588;13.406;2024-02-21T02:10:37;7.90;99.90
25963;DHT22;13760;52.588;13.406;2024-02-21T02:13:02;7.90;99.90
25963;DHT22;13760;52.588;13.406;2024-02-21T02:15:38;7.90;99.90
25963;DHT22;13760;52.588;13.406;2024-02-21T02:18:03;7.90;99.90
25963;DHT22;13760;52.588;13.406;2024-02-21T02:20:29;7.80;99.90
25963;DHT22;13760;52.588;13.406;2024-02-21T02:22:54;7.80;99.90
25963;DHT22;13760;52.588;13.406;2024-02-21T02:25:20;7.80;99.90
25963;DHT22;13760;52.588;13.406;2024-02-21T02:27:46;7.70;99.90
25963;DHT22;13760;52.588;13.406;2024-02-21T02:30:12;7.70;99.90
25963;DHT22;13760;52.588;13.406;2024-02-21T02:32:37;7.70;99.90
25963;DHT22;13760;52.588;13.406;2024-02-21T02:35:03;7.60;99.90
25963;DHT22;13760;52.588;13.406;2024-02-21T02:37:29;7.60;99.90
25963;DHT22;13760;52.588;13.406;2024-02-21T02:39:55;7.60;99.90
25963;DHT22;13760;52.588;13.406;2024-02-21T02:42:20;7.60;99.90
25963;DHT22;13760;52.588;13.406;2024-02-21T02:44:46;7.60;99.90
25963;DHT22;13760;52.588;13.406;2024-02-21T02:47:12;7.50;99.90
25963;DHT22;13760;52.588;13.406;2024-02-21T02:49:37;7.50;99.90
25963;DHT22;13760;52.588;13.406;2024-02-21T02:52:03;7.50;99.90
25963;DHT22;13760;52.588;13.406;2024-02-21T02:54:29;7.50;99.90
25963;DHT22;13760;52.588;13.406;2024-02-21T02:56:54;7.40;99.90
25963;DHT22;13760;52.588;13.406;2024-02-21T02:59:20;7.40;99.90
25963;DHT22;13760;52.588;13.406;2024-02-21T03:01:45;7.40;99.90
25963;DHT22;13760;52.588;13.406;2024-02-21T03:04:11;7.40;99.90
25963;DHT22;13760;52.588;13.406;2024-02-21T03:06:36;7.40;99.90
25963;DHT22;13760;52.588;13.406;2024-02-21T03:09:02;7.30;99.90
25963;DHT22;13760;52.588;13.406;2024-02-21T03:11:33;7.30;99.90
25963;DHT22;13760;52.588;13.406;2024-02-21T03:13:58;7.40;99.90
25963;DHT22;13760;52.588;13.406;2024-02-21T03:16:24;7.30;99.90
25963;DHT22;13760;52.588;13.406;2024-02-21T03:18:50;7.30;99.90
25963;DHT22;13760;52.588;13.406;2024-02-21T03:21:15;7.30;99.90
25963;DHT22;13760;52.588;13.406;2024-02-21T03:23:41;7.30;99.90
25963;DHT22;13760;52.588;13.406;2024-02-21T03:26:07;7.30;99.90
25963;DHT22;13760;52.588;13.406;2024-02-21T03:28:32;7.30;99.90
25963;DHT22;13760;52.588;13.406;2024-02-21T03:30:58;7.30;99.90
25963;DHT22;13760;52.588;13.406;2024-02-21T03:33:23;7.20;99.90
25963;DHT22;13760;52.588;13.406;2024-02-21T03:35:49;7.20;99.90
25963;DHT22;13760;52.588;13.406;2024-02-21T03:38:14;7.20;99.90
25963;DHT22;13760;52.588;13.406;2024-02-21T03:40:40;7.20;99.90
25963;DHT22;13760;52.588;13.406;2024-02-21T03:43:05;7.20;99.90
25963;DHT22;13760;52.588;13.406;2024-02-21T03:45:31;7.20;99.90
25963;DHT22;13760;52.588;13.406;2024-02-21T03:47:56;7.20;99.90
25963;DHT22;13760;52.588;13.406;2024-02-21T03:50:22;7.10;99.90
25963;DHT22;13760;52.588;13.406;2024-02-21T03:52:47;7.10;99.90
25963;DHT22;13760;52.588;13.406;2024-02-21T03:55:13;7.10;99.90
25963;DHT22;13760;52.588;13.406;2024-02-21T03:57:39;7.10;99.90
25963;DHT22;13760;52.588;13.406;2024-02-21T04:00:05;7.10;99.90
25963;DHT22;13760;52.588;13.406;2024-02-21T04:02:36;7.10;99.90
25963;DHT22;13760;52.588;13.406;2024-02-21T04:05:01;7.10;99.90
25963;DHT22;13760;52.588;13.406;2024-02-21T04:07:27;7.10;99.90
25963;DHT22;13760;52.588;13.406;2024-02-21T04:09:53;7.10;99.90
25963;DHT22;13760;52.588;13.406;2024-02-21T04:12:18;7.10;99.90
25963;DHT22;13760;52.588;13.406;2024-02-21T04:14:44;7.10;99.90
25963;DHT22;13760;52.588;13.406;2024-02-21T04:17:09;7.10;99.90
25963;DHT22;13760;52.588;13.406;2024-02-21T04:19:35;7.10;99.90
25963;DHT22;13760;52.588;13.406;2024-02-21T04:22:00;7.10;99.90
25963;DHT22;13760;52.588;13.406;2024-02-21T04:24:26;7.10;99.90
25963;DHT22;13760;52.588;13.406;2024-02-21T04:26:51;7.10;99.90
25963;DHT22;13760;52.588;13.406;2024-02-21T04:29:17;7.10;99.90
25963;DHT22;13760;52.588;13.406;2024-02-21T04:31:42;7.10;99.90
25963;DHT22;13760;52.588;13.406;2024-02-21T04:34:08;7.10;99.90
25963;DHT22;13760;52.588;13.406;2024-02-21T04:36:33;7.10;99.90
25963;DHT22;13760;52.588;13.406;2024-02-21T04:39:02;7.10;99.90
25963;DHT22;13760;52.588;13.406;2024-02-21T04:41:29;7.10;99.90
25963;DHT22;13760;52.588;13.406;2024-02-21T04:43:55;7.10;99.90
25963;DHT22;13760;52.588;13.406;2024-02-21T04:46:20;7.10;99.90
25963;DHT22;13760;52.588;13.406;2024-02-21T04:48:46;7.10;99.90
25963;DHT22;13760;52.588;13.406;2024-02-21T04:51:22;7.10;99.90
25963;DHT22;13760;52.588;13.406;2024-02-21T04:53:50;7.10;99.90
25963;DHT22;13760;52.588;13.406;2024-02-21T04:56:15;7.10;99.90
25963;DHT22;13760;52.588;13.406;2024-02-21T04:58:41;7.10;99.90
25963;DHT22;13760;52.588;13.406;2024-02-21T05:01:06;7.20;99.90
25963;DHT22;13760;52.588;13.406;2024-02-21T05:03:33;7.10;99.90
25963;DHT22;13760;52.588;13.406;2024-02-21T05:06:00;7.20;99.90
25963;DHT22;13760;52.588;13.406;2024-02-21T05:08:28;7.20;99.90
25963;DHT22;13760;52.588;13.406;2024-02-21T05:10:55;7.20;99.90
25963;DHT22;13760;52.588;13.406;2024-02-21T05:13:20;7.10;99.90
25963;DHT22;13760;52.588;13.406;2024-02-21T05:15:46;7.20;99.90
25963;DHT22;13760;52.588;13.406;2024-02-21T05:18:11;7.20;99.90
25963;DHT22;13760;52.588;13.406;2024-02-21T05:20:37;7.20;99.90
25963;DHT22;13760;52.588;13.406;2024-02-21T05:23:02;7.20;99.90
25963;DHT22;13760;52.588;13.406;2024-02-21T05:25:28;7.10;99.90
25963;DHT22;13760;52.588;13.406;2024-02-21T05:27:57;7.10;99.90
25963;DHT22;13760;52.588;13.406;2024-02-21T05:30:37;7.20;99.90
25963;DHT22;13760;52.588;13.406;2024-02-21T05:33:06;7.20;99.90
25963;DHT22;13760;52.588;13.406;2024-02-21T05:35:32;7.10;99.90
25963;DHT22;13760;52.588;13.406;2024-02-21T05:37:58;7.10;99.90
25963;DHT22;13760;52.588;13.406;2024-02-21T05:40:33;7.20;99.90
25963;DHT22;13760;52.588;13.406;2024-02-21T05:43:04;7.20;99.90
25963;DHT22;13760;52.588;13.406;2024-02-21T05:45:29;7.20;99.90
25963;DHT22;13760;52.588;13.406;2024-02-21T05:47:55;7.20;99.90
25963;DHT22;13760;52.588;13.406;2024-02-21T05:50:22;7.20;99.90
25963;DHT22;13760;52.588;13.406;2024-02-21T05:52:52;7.20;99.90
25963;DHT22;13760;52.588;13.406;2024-02-21T05:55:18;7.20;99.90
25963;DHT22;13760;52.588;13.406;2024-02-21T05:57:43;7.20;99.90
25963;DHT22;13760;52.588;13.406;2024-02-21T06:00:09;7.20;99.90
25963;DHT22;13760;52.588;13.406;2024-02-21T06:02:35;7.20;99.90
25963;DHT22;13760;52.588;13.406;2024-02-21T06:05:01;7.20;99.90
25963;DHT22;13760;52.588;13.406;2024-02-21T06:07:26;7.20;99.90
25963;DHT22;13760;52.588;13.406;2024-02-21T06:09:52;7.20;99.90
25963;DHT22;13760;52.588;13.406;2024-02-21T06:12:17;7.20;99.90
25963;DHT22;13760;52.588;13.406;2024-02-21T06:14:43;7.20;99.90
25963;DHT22;13760;52.588;13.406;2024-02-21T06:17:08;7.30;99.90
25963;DHT22;13760;52.588;13.406;2024-02-21T06:19:34;7.20;99.90
25963;DHT22;13760;52.588;13.406;2024-02-21T06:21:59;7.20;99.90
25963;DHT22;13760;52.588;13.406;2024-02-21T06:24:25;7.20;99.90
25963;DHT22;13760;52.588;13.406;2024-02-21T06:26:50;7.20;99.90
25963;DHT22;13760;52.588;13.406;2024-02-21T06:29:16;7.30;99.90
25963;DHT22;13760;52.588;13.406;2024-02-21T06:31:41;7.30;99.90
25963;DHT22;13760;52.588;13.406;2024-02-21T06:34:07;7.30;99.90
25963;DHT22;13760;52.588;13.406;2024-02-21T06:36:33;7.30;99.90
25963;DHT22;13760;52.588;13.406;2024-02-21T06:38:59;7.30;99.90
25963;DHT22;13760;52.588;13.406;2024-02-21T06:41:24;7.30;99.90
25963;DHT22;13760;52.588;13.406;2024-02-21T06:43:50;7.30;99.90
25963;DHT22;13760;52.588;13.406;2024-02-21T06:46:26;7.30;99.90
25963;DHT22;13760;52.588;13.406;2024-02-21T06:48:53;7.40;99.90
25963;DHT22;13760;52.588;13.406;2024-02-21T06:51:19;7.40;99.90
25963;DHT22;13760;52.588;13.406;2024-02-21T06:53:44;7.40;99.90
25963;DHT22;13760;52.588;13.406;2024-02-21T06:56:10;7.40;99.90
25963;DHT22;13760;52.588;13.406;2024-02-21T06:58:36;7.40;99.90
25963;DHT22;13760;52.588;13.406;2024-02-21T07:01:01;7.40;99.90
25963;DHT22;13760;52.588;13.406;2024-02-21T07:03:27;7.40;99.90
25963;DHT22;13760;52.588;13.406;2024-02-21T07:05:53;7.40;99.90
25963;DHT22;13760;52.588;13.406;2024-02-21T07:08:18;7.40;99.90
25963;DHT22;13760;52.588;13.406;2024-02-21T07:10:44;7.40;99.90
25963;DHT22;13760;52.588;13.406;2024-02-21T07:13:09;7.40;99.90
25963;DHT22;13760;52.588;13.406;2024-02-21T07:15:36;7.40;99.90
25963;DHT22;13760;52.588;13.406;2024-02-21T07:18:03;7.40;99.90
25963;DHT22;13760;52.588;13.406;2024-02-21T07:20:28;7.50;99.90
25963;DHT22;13760;52.588;13.406;2024-02-21T07:22:54;7.50;99.90
25963;DHT22;13760;52.588;13.406;2024-02-21T07:25:21;7.50;99.90
25963;DHT22;13760;52.588;13.406;2024-02-21T07:27:53;7.60;99.90
25963;DHT22;13760;52.588;13.406;2024-02-21T07:30:23;7.60;99.90
25963;DHT22;13760;52.588;13.406;2024-02-21T07:32:51;7.60;99.90
25963;DHT22;13760;52.588;13.406;2024-02-21T07:35:18;7.60;99.90
25963;DHT22;13760;52.588;13.406;2024-02-21T07:37:43;7.60;99.90
25963;DHT22;13760;52.588;13.406;2024-02-21T07:40:13;7.60;99.90
25963;DHT22;13760;52.588;13.406;2024-02-21T07:42:39;7.60;99.90
25963;DHT22;13760;52.588;13.406;2024-02-21T07:45:04;7.60;99.90
25963;DHT22;13760;52.588;13.406;2024-02-21T07:47:30;7.60;99.90
25963;DHT22;13760;52.588;13.406;2024-02-21T07:49:55;7.60;99.90
25963;DHT22;13760;52.588;13.406;2024-02-21T07:52:21;7.60;99.90
25963;DHT22;13760;52.588;13.406;2024-02-21T07:54:46;7.60;99.90
25963;DHT22;13760;52.588;13.406;2024-02-21T07:57:12;7.70;99.90
25963;DHT22;13760;52.588;13.406;2024-02-21T07:59:37;7.70;99.90
25963;DHT22;13760;52.588;13.406;2024-02-21T08:02:03;7.70;99.90
25963;DHT22;13760;52.588;13.406;2024-02-21T08:04:32;7.70;99.90
25963;DHT22;13760;52.588;13.406;2024-02-21T08:06:57;7.70;99.90
25963;DHT22;13760;52.588;13.406;2024-02-21T08:09:26;7.70;99.90
25963;DHT22;13760;52.588;13.406;2024-02-21T08:11:52;7.70;99.90
25963;DHT22;13760;52.588;13.406;2024-02-21T08:14:17;7.70;99.90
25963;DHT22;13760;52.588;13.406;2024-02-21T08:16:43;7.70;99.90
25963;DHT22;13760;52.588;13.406;2024-02-21T08:19:10;7.80;99.90
25963;DHT22;13760;52.588;13.406;2024-02-21T08:21:35;7.80;99.90
25963;DHT22;13760;52.588;13.406;2024-02-21T08:24:01;7.80;99.90
25963;DHT22;13760;52.588;13.406;2024-02-21T08:26:26;7.80;99.90
25963;DHT22;13760;52.588;13.406;2024-02-21T08:28:55;7.80;99.90
25963;DHT22;13760;52.588;13.406;2024-02-21T08:31:24;7.80;99.90
25963;DHT22;13760;52.588;13.406;2024-02-21T08:33:53;7.80;99.90
25963;DHT22;13760;52.588;13.406;2024-02-21T08:36:19;7.90;99.90
25963;DHT22;13760;52.588;13.406;2024-02-21T08:38:45;7.90;99.90
25963;DHT22;13760;52.588;13.406;2024-02-21T08:41:11;7.90;99.90
25963;DHT22;13760;52.588;13.406;2024-02-21T08:43:37;8.00;99.90
25963;DHT22;13760;52.588;13.406;2024-02-21T08:46:03;8.00;99.90
25963;DHT22;13760;52.588;13.406;2024-02-21T08:48:29;8.10;99.90
25963;DHT22;13760;52.588;13.406;2024-02-21T08:50:54;8.20;99.90
25963;DHT22;13760;52.588;13.406;2024-02-21T08:53:20;8.30;99.90
25963;DHT22;13760;52.588;13.406;2024-02-21T08:55:46;8.40;99.90
25963;DHT22;13760;52.588;13.406;2024-02-21T08:58:11;8.40;99.90
25963;DHT22;13760;52.588;13.406;2024-02-21T09:00:37;8.40;99.90
25963;DHT22;13760;52.588;13.406;2024-02-21T09:03:03;8.40;99.90
25963;DHT22;13760;52.588;13.406;2024-02-21T09:05:29;8.40;99.90
25963;DHT22;13760;52.588;13.406;2024-02-21T09:07:55;8.40;99.90
25963;DHT22;13760;52.588;13.406;2024-02-21T09:10:21;8.40;99.90
25963;DHT22;13760;52.588;13.406;2024-02-21T09:12:46;8.40;99.90
25963;DHT22;13760;52.588;13.406;2024-02-21T09:15:13;8.40;99.90
25963;DHT22;13760;52.588;13.406;2024-02-21T09:17:38;8.40;99.90
25963;DHT22;13760;52.588;13.406;2024-02-21T09:20:05;8.40;99.90
25963;DHT22;13760;52.588;13.406;2024-02-21T09:22:31;8.40;99.90
25963;DHT22;13760;52.588;13.406;2024-02-21T09:25:00;8.40;99.90
25963;DHT22;13760;52.588;13.406;2024-02-21T09:27:25;8.40;99.90
25963;DHT22;13760;52.588;13.406;2024-02-21T09:29:51;8.50;99.90
25963;DHT22;13760;52.588;13.406;2024-02-21T09:32:17;8.50;99.90
25963;DHT22;13760;52.588;13.406;2024-02-21T09:34:44;8.50;99.90
25963;DHT22;13760;52.588;13.406;2024-02-21T09:37:10;8.60;99.90
25963;DHT22;13760;52.588;13.406;2024-02-21T09:39:35;8.60;99.90
25963;DHT22;13760;52.588;13.406;2024-02-21T09:42:06;8.70;99.90
25963;DHT22;13760;52.588;13.406;2024-02-21T09:44:39;8.80;99.90
25963;DHT22;13760;52.588;13.406;2024-02-21T09:47:30;8.90;99.90
25963;DHT22;13760;52.588;13.406;2024-02-21T09:50:00;9.00;99.90
25963;DHT22;13760;52.588;13.406;2024-02-21T09:52:27;9.00;99.90
25963;DHT22;13760;52.588;13.406;2024-02-21T09:54:53;9.00;99.90
25963;DHT22;13760;52.588;13.406;2024-02-21T09:57:20;9.00;99.90
25963;DHT22;13760;52.588;13.406;2024-02-21T09:59:45;8.90;99.90
25963;DHT22;13760;52.588;13.406;2024-02-21T10:02:11;9.00;99.90
25963;DHT22;13760;52.588;13.406;2024-02-21T10:04:39;8.90;99.90
25963;DHT22;13760;52.588;13.406;2024-02-21T10:07:05;8.90;99.90
25963;DHT22;13760;52.588;13.406;2024-02-21T10:09:31;8.90;99.90
25963;DHT22;13760;52.588;13.406;2024-02-21T10:12:11;8.90;99.90
25963;DHT22;13760;52.588;13.406;2024-02-21T10:14:37;9.00;99.90
25963;DHT22;13760;52.588;13.406;2024-02-21T10:17:03;9.00;99.90
25963;DHT22;13760;52.588;13.406;2024-02-21T10:19:30;9.00;99.90
25963;DHT22;13760;52.588;13.406;2024-02-21T10:22:07;9.00;99.90
25963;DHT22;13760;52.588;13.406;2024-02-21T10:24:35;9.10;99.90
25963;DHT22;13760;52.588;13.406;2024-02-21T10:27:04;9.20;99.90
25963;DHT22;13760;52.588;13.406;2024-02-21T10:29:33;9.20;99.90
25963;DHT22;13760;52.588;13.406;2024-02-21T10:32:13;9.30;99.90
25963;DHT22;13760;52.588;13.406;2024-02-21T10:34:41;9.40;99.90
25963;DHT22;13760;52.588;13.406;2024-02-21T10:37:08;9.50;99.90
25963;DHT22;13760;52.588;13.406;2024-02-21T10:39:38;9.60;99.90
25963;DHT22;13760;52.588;13.406;2024-02-21T10:42:04;9.60;99.90
25963;DHT22;13760;52.588;13.406;2024-02-21T10:44:31;9.60;99.90
25963;DHT22;13760;52.588;13.406;2024-02-21T10:46:58;9.60;99.90
25963;DHT22;13760;52.588;13.406;2024-02-21T10:49:25;9.50;99.90
25963;DHT22;13760;52.588;13.406;2024-02-21T10:51:57;9.50;99.90
25963;DHT22;13760;52.588;13.406;2024-02-21T10:54:35;9.40;99.90
25963;DHT22;13760;52.588;13.406;2024-02-21T10:57:04;9.40;99.90
25963;DHT22;13760;52.588;13.406;2024-02-21T10:59:31;9.40;99.90
25963;DHT22;13760;52.588;13.406;2024-02-21T11:01:57;9.40;99.90
25963;DHT22;13760;52.588;13.406;2024-02-21T11:04:23;9.40;99.90
25963;DHT22;13760;52.588;13.406;2024-02-21T11:06:50;9.40;99.90
25963;DHT22;13760;52.588;13.406;2024-02-21T11:09:16;9.40;99.90
25963;DHT22;13760;52.588;13.406;2024-02-21T11:11:43;9.40;99.90
25963;DHT22;13760;52.588;13.406;2024-02-21T11:14:11;9.30;99.90
25963;DHT22;13760;52.588;13.406;2024-02-21T11:16:41;9.40;99.90
25963;DHT22;13760;52.588;13.406;2024-02-21T11:19:08;9.40;99.90
25963;DHT22;13760;52.588;13.406;2024-02-21T11:21:35;9.50;99.90
25963;DHT22;13760;52.588;13.406;2024-02-21T11:24:04;9.50;99.90
25963;DHT22;13760;52.588;13.406;2024-02-21T11:26:32;9.50;99.90
25963;DHT22;13760;52.588;13.406;2024-02-21T11:29:01;9.50;99.90
25963;DHT22;13760;52.588;13.406;2024-02-21T11:31:39;9.60;99.90
25963;DHT22;13760;52.588;13.406;2024-02-21T11:34:08;9.60;99.90
25963;DHT22;13760;52.588;13.406;2024-02-21T11:36:34;9.60;99.90
25963;DHT22;13760;52.588;13.406;2024-02-21T11:39:06;9.70;99.90
25963;DHT22;13760;52.588;13.406;2024-02-21T11:41:31;9.80;99.90
25963;DHT22;13760;52.588;13.406;2024-02-21T11:43:57;10.00;99.90
25963;DHT22;13760;52.588;13.406;2024-02-21T11:46:22;10.00;99.90
25963;DHT22;13760;52.588;13.406;2024-02-21T11:48:49;10.00;99.90
25963;DHT22;13760;52.588;13.406;2024-02-21T11:51:25;10.20;99.90
25963;DHT22;13760;52.588;13.406;2024-02-21T11:53:52;10.20;99.90
25963;DHT22;13760;52.588;13.406;2024-02-21T11:56:18;10.30;99.90
25963;DHT22;13760;52.588;13.406;2024-02-21T11:58:45;10.40;99.90
25963;DHT22;13760;52.588;13.406;2024-02-21T12:01:11;10.30;99.90
25963;DHT22;13760;52.588;13.406;2024-02-21T12:03:37;10.30;99.90
25963;DHT22;13760;52.588;13.406;2024-02-21T12:06:03;10.40;99.90
25963;DHT22;13760;52.588;13.406;2024-02-21T12:08:41;10.50;99.90
25963;DHT22;13760;52.588;13.406;2024-02-21T12:11:21;10.60;99.90
25963;DHT22;13760;52.588;13.406;2024-02-21T12:14:00;10.60;99.90
25963;DHT22;13760;52.588;13.406;2024-02-21T12:16:30;10.70;99.90
25963;DHT22;13760;52.588;13.406;2024-02-21T12:18:56;10.70;99.90
25963;DHT22;13760;52.588;13.406;2024-02-21T12:21:35;10.70;99.90
25963;DHT22;13760;52.588;13.406;2024-02-21T12:24:16;10.70;99.90
25963;DHT22;13760;52.588;13.406;2024-02-21T12:26:42;10.80;99.90
25963;DHT22;13760;52.588;13.406;2024-02-21T12:29:08;11.00;99.90
25963;DHT22;13760;52.588;13.406;2024-02-21T12:31:38;11.00;99.90
25963;DHT22;13760;52.588;13.406;2024-02-21T12:34:04;11.10;99.90
25963;DHT22;13760;52.588;13.406;2024-02-21T12:36:31;11.10;99.90
25963;DHT22;13760;52.588;13.406;2024-02-21T12:38:56;11.20;99.90
25963;DHT22;13760;52.588;13.406;2024-02-21T12:41:22;11.20;99.90
25963;DHT22;13760;52.588;13.406;2024-02-21T12:43:47;11.20;99.90
25963;DHT22;13760;52.588;13.406;2024-02-21T12:46:13;11.40;99.90
25963;DHT22;13760;52.588;13.406;2024-02-21T12:48:38;11.60;99.90
25963;DHT22;13760;52.588;13.406;2024-02-21T12:51:05;11.60;99.90
25963;DHT22;13760;52.588;13.406;2024-02-21T12:53:31;11.50;99.90
25963;DHT22;13760;52.588;13.406;2024-02-21T12:55:56;11.60;99.90
25963;DHT22;13760;52.588;13.406;2024-02-21T12:58:22;11.70;99.90
25963;DHT22;13760;52.588;13.406;2024-02-21T13:00:47;11.80;99.90
25963;DHT22;13760;52.588;13.406;2024-02-21T13:03:14;11.90;99.90
25963;DHT22;13760;52.588;13.406;2024-02-21T13:05:40;12.00;99.90
25963;DHT22;13760;52.588;13.406;2024-02-21T13:08:14;11.90;99.90
25963;DHT22;13760;52.588;13.406;2024-02-21T13:10:40;11.80;99.90
25963;DHT22;13760;52.588;13.406;2024-02-21T13:13:05;11.80;99.90
25963;DHT22;13760;52.588;13.406;2024-02-21T13:15:31;11.80;99.90
25963;DHT22;13760;52.588;13.406;2024-02-21T13:17:57;11.70;99.90
25963;DHT22;13760;52.588;13.406;2024-02-21T13:20:26;11.60;99.90
25963;DHT22;13760;52.588;13.406;2024-02-21T13:22:52;11.60;99.90
25963;DHT22;13760;52.588;13.406;2024-02-21T13:25:18;11.60;99.90
25963;DHT22;13760;52.588;13.406;2024-02-21T13:27:46;11.60;99.90
25963;DHT22;13760;52.588;13.406;2024-02-21T13:30:12;11.60;99.90
25963;DHT22;13760;52.588;13.406;2024-02-21T13:32:38;11.60;99.90
25963;DHT22;13760;52.588;13.406;2024-02-21T13:35:04;11.50;99.90
25963;DHT22;13760;52.588;13.406;2024-02-21T13:37:29;11.50;99.90
25963;DHT22;13760;52.588;13.406;2024-02-21T13:39:55;11.50;99.90
25963;DHT22;13760;52.588;13.406;2024-02-21T13:42:21;11.50;99.90
25963;DHT22;13760;52.588;13.406;2024-02-21T13:44:46;11.50;99.90
25963;DHT22;13760;52.588;13.406;2024-02-21T13:47:15;11.40;99.90
25963;DHT22;13760;52.588;13.406;2024-02-21T13:49:41;11.40;99.90
25963;DHT22;13760;52.588;13.406;2024-02-21T13:52:07;11.30;99.90
25963;DHT22;13760;52.588;13.406;2024-02-21T13:54:32;11.20;99.90
25963;DHT22;13760;52.588;13.406;2024-02-21T13:56:58;11.20;99.90
25963;DHT22;13760;52.588;13.406;2024-02-21T13:59:24;11.20;99.90
25963;DHT22;13760;52.588;13.406;2024-02-21T14:01:51;11.20;99.90
25963;DHT22;13760;52.588;13.406;2024-02-21T14:04:17;11.10;99.90
25963;DHT22;13760;52.588;13.406;2024-02-21T14:06:42;11.10;99.90
25963;DHT22;13760;52.588;13.406;2024-02-21T14:09:12;11.00;99.90
25963;DHT22;13760;52.588;13.406;2024-02-21T14:11:38;11.00;99.90
25963;DHT22;13760;52.588;13.406;2024-02-21T14:14:05;10.90;99.90
25963;DHT22;13760;52.588;13.406;2024-02-21T14:16:32;10.90;99.90
25963;DHT22;13760;52.588;13.406;2024-02-21T14:18:57;10.90;99.90
25963;DHT22;13760;52.588;13.406;2024-02-21T14:21:23;10.90;99.90
25963;DHT22;13760;52.588;13.406;2024-02-21T14:23:48;10.90;99.90
25963;DHT22;13760;52.588;13.406;2024-02-21T14:26:14;10.90;99.90
25963;DHT22;13760;52.588;13.406;2024-02-21T14:28:40;10.90;99.90
25963;DHT22;13760;52.588;13.406;2024-02-21T14:31:07;10.90;99.90
25963;DHT22;13760;52.588;13.406;2024-02-21T14:33:35;10.90;99.90
25963;DHT22;13760;52.588;13.406;2024-02-21T14:36:02;10.90;99.90
25963;DHT22;13760;52.588;13.406;2024-02-21T14:38:28;10.90;99.90
25963;DHT22;13760;52.588;13.406;2024-02-21T14:40:54;10.80;99.90
25963;DHT22;13760;52.588;13.406;2024-02-21T14:43:20;10.80;99.90
25963;DHT22;13760;52.588;13.406;2024-02-21T14:45:47;10.80;99.90
25963;DHT22;13760;52.588;13.406;2024-02-21T14:48:13;10.80;99.90
25963;DHT22;13760;52.588;13.406;2024-02-21T14:50:39;10.80;99.90
25963;DHT22;13760;52.588;13.406;2024-02-21T14:53:05;10.80;99.90
25963;DHT22;13760;52.588;13.406;2024-02-21T14:55:30;10.80;99.90
25963;DHT22;13760;52.588;13.406;2024-02-21T14:57:56;10.80;99.90
25963;DHT22;13760;52.588;13.406;2024-02-21T15:00:21;10.80;99.90
25963;DHT22;13760;52.588;13.406;2024-02-21T15:02:55;10.80;99.90
25963;DHT22;13760;52.588;13.406;2024-02-21T15:05:21;10.80;99.90
25963;DHT22;13760;52.588;13.406;2024-02-21T15:07:46;10.80;99.90
25963;DHT22;13760;52.588;13.406;2024-02-21T15:10:12;10.80;99.90
25963;DHT22;13760;52.588;13.406;2024-02-21T15:12:37;10.80;99.90
25963;DHT22;13760;52.588;13.406;2024-02-21T15:15:03;10.80;99.90
25963;DHT22;13760;52.588;13.406;2024-02-21T15:17:29;10.80;99.90
25963;DHT22;13760;52.588;13.406;2024-02-21T15:19:55;10.80;99.90
25963;DHT22;13760;52.588;13.406;2024-02-21T15:22:21;10.70;99.90
25963;DHT22;13760;52.588;13.406;2024-02-21T15:24:48;10.70;99.90